createdAt,value
2023-05-19T00:00:42.000Z,0
2023-05-19T00:01:42.000Z,0
2023-05-19T00:02:43.000Z,0
2023-05-19T00:03:43.000Z,0
2023-05-19T00:04:44.000Z,0
2023-05-19T00:05:45.000Z,0
2023-05-19T00:06:45.000Z,0
2023-05-19T00:07:46.000Z,0
2023-05-19T00:08:47.000Z,0
2023-05-19T00:09:47.000Z,0
2023-05-19T00:10:48.000Z,0
2023-05-19T00:11:49.000Z,0
2023-05-19T00:12:49.000Z,0
2023-05-19T00:13:50.000Z,0
2023-05-19T00:14:50.000Z,0
2023-05-19T00:15:51.000Z,0
2023-05-19T00:16:52.000Z,0
2023-05-19T00:17:52.000Z,0
2023-05-19T00:18:53.000Z,0
2023-05-19T00:19:54.000Z,0
2023-05-19T00:20:54.000Z,0
2023-05-19T00:21:55.000Z,0
2023-05-19T00:22:56.000Z,0
2023-05-19T00:23:56.000Z,0
2023-05-19T00:24:57.000Z,0
2023-05-19T00:25:58.000Z,0
2023-05-19T00:26:58.000Z,0
2023-05-19T00:27:59.000Z,0
2023-05-19T00:28:59.000Z,0
2023-05-19T00:30:00.000Z,0
2023-05-19T00:31:01.000Z,0
2023-05-19T00:32:01.000Z,0
2023-05-19T00:33:02.000Z,0
2023-05-19T00:34:03.000Z,0
2023-05-19T00:35:03.000Z,0
2023-05-19T00:36:04.000Z,0
2023-05-19T00:37:05.000Z,0
2023-05-19T00:38:05.000Z,0
2023-05-19T00:39:06.000Z,0
2023-05-19T00:40:07.000Z,0
2023-05-19T00:41:07.000Z,0
2023-05-19T00:42:08.000Z,0
2023-05-19T00:43:08.000Z,0
2023-05-19T00:44:09.000Z,0
2023-05-19T00:45:10.000Z,0
2023-05-19T00:46:10.000Z,0
2023-05-19T00:47:11.000Z,0
2023-05-19T00:48:12.000Z,0
2023-05-19T00:49:12.000Z,0
2023-05-19T00:50:13.000Z,0
2023-05-19T00:51:14.000Z,0
2023-05-19T00:52:14.000Z,0
2023-05-19T00:53:15.000Z,0
2023-05-19T00:54:16.000Z,0
2023-05-19T00:55:16.000Z,0
2023-05-19T00:56:17.000Z,0
2023-05-19T00:57:18.000Z,0
2023-05-19T00:58:18.000Z,0
2023-05-19T00:59:19.000Z,0
2023-05-19T01:00:19.000Z,0
2023-05-19T01:01:20.000Z,0
2023-05-19T01:02:21.000Z,0
2023-05-19T01:03:21.000Z,0
2023-05-19T01:04:22.000Z,0
2023-05-19T01:05:23.000Z,0
2023-05-19T01:06:23.000Z,0
2023-05-19T01:07:24.000Z,0
2023-05-19T01:08:25.000Z,0
2023-05-19T01:09:25.000Z,0
2023-05-19T01:10:26.000Z,0
2023-05-19T01:11:27.000Z,0
2023-05-19T01:12:27.000Z,0
2023-05-19T01:13:28.000Z,0
2023-05-19T01:14:28.000Z,0
2023-05-19T01:15:29.000Z,0
2023-05-19T01:16:30.000Z,0
2023-05-19T01:17:30.000Z,0
2023-05-19T01:18:31.000Z,0
2023-05-19T01:19:32.000Z,0
2023-05-19T01:20:32.000Z,0
2023-05-19T01:21:33.000Z,0
2023-05-19T01:22:34.000Z,0
2023-05-19T01:23:34.000Z,0
2023-05-19T01:24:35.000Z,0
2023-05-19T01:25:36.000Z,0
2023-05-19T01:26:36.000Z,0
2023-05-19T01:27:37.000Z,0
2023-05-19T01:28:38.000Z,0
2023-05-19T01:29:38.000Z,0
2023-05-19T01:30:39.000Z,0
2023-05-19T01:31:40.000Z,0
2023-05-19T01:32:40.000Z,0
2023-05-19T01:33:41.000Z,0
2023-05-19T01:34:42.000Z,0
2023-05-19T01:35:42.000Z,0
2023-05-19T01:36:43.000Z,0
2023-05-19T01:37:43.000Z,0
2023-05-19T01:38:44.000Z,0
2023-05-19T01:39:45.000Z,0
2023-05-19T01:40:45.000Z,0
2023-05-19T01:41:46.000Z,0
2023-05-19T01:42:47.000Z,0
2023-05-19T01:43:47.000Z,0
2023-05-19T01:44:48.000Z,0
2023-05-19T01:45:49.000Z,0
2023-05-19T01:46:49.000Z,0
2023-05-19T01:47:50.000Z,0
2023-05-19T01:48:51.000Z,0
2023-05-19T01:49:51.000Z,0
2023-05-19T01:50:52.000Z,0
2023-05-19T01:51:52.000Z,0
2023-05-19T01:52:53.000Z,0
2023-05-19T01:53:54.000Z,0
2023-05-19T01:54:54.000Z,0
2023-05-19T01:55:55.000Z,0
2023-05-19T01:56:56.000Z,0
2023-05-19T01:57:56.000Z,0
2023-05-19T01:58:57.000Z,0
2023-05-19T01:59:58.000Z,0
2023-05-19T02:00:58.000Z,0
2023-05-19T02:01:59.000Z,0
2023-05-19T02:02:59.000Z,0
2023-05-19T02:04:00.000Z,0
2023-05-19T02:05:01.000Z,0
2023-05-19T02:06:01.000Z,0
2023-05-19T02:07:02.000Z,0
2023-05-19T02:08:03.000Z,0
2023-05-19T02:09:03.000Z,0
2023-05-19T02:10:04.000Z,0
2023-05-19T02:11:05.000Z,0
2023-05-19T02:12:05.000Z,0
2023-05-19T02:13:06.000Z,0
2023-05-19T02:14:07.000Z,0
2023-05-19T02:15:07.000Z,0
2023-05-19T02:16:08.000Z,0
2023-05-19T02:17:09.000Z,0
2023-05-19T02:18:09.000Z,0
2023-05-19T02:19:10.000Z,0
2023-05-19T02:20:11.000Z,0
2023-05-19T02:21:11.000Z,0
2023-05-19T02:22:12.000Z,0
2023-05-19T02:23:12.000Z,0
2023-05-19T02:24:13.000Z,0
2023-05-19T02:25:14.000Z,0
2023-05-19T02:26:14.000Z,0
2023-05-19T02:27:15.000Z,0
2023-05-19T02:28:16.000Z,0
2023-05-19T02:29:16.000Z,0
2023-05-19T02:30:17.000Z,0
2023-05-19T02:31:17.000Z,1
2023-05-19T02:32:18.000Z,1
2023-05-19T02:33:19.000Z,1
2023-05-19T02:34:19.000Z,1
2023-05-19T02:35:20.000Z,1
2023-05-19T02:36:21.000Z,1
2023-05-19T02:37:21.000Z,2
2023-05-19T02:38:22.000Z,1
2023-05-19T02:39:22.000Z,2
2023-05-19T02:40:23.000Z,2
2023-05-19T02:41:24.000Z,3
2023-05-19T02:42:24.000Z,3
2023-05-19T02:43:25.000Z,4
2023-05-19T02:44:26.000Z,4
2023-05-19T02:45:26.000Z,5
2023-05-19T02:46:27.000Z,5
2023-05-19T02:47:28.000Z,5
2023-05-19T02:48:28.000Z,7
2023-05-19T02:49:29.000Z,8
2023-05-19T02:50:29.000Z,9
2023-05-19T02:51:30.000Z,10
2023-05-19T02:52:31.000Z,11
2023-05-19T02:53:31.000Z,13
2023-05-19T02:54:32.000Z,15
2023-05-19T02:55:33.000Z,17
2023-05-19T02:56:33.000Z,20
2023-05-19T02:57:34.000Z,23
2023-05-19T02:58:35.000Z,26
2023-05-19T02:59:35.000Z,30
2023-05-19T03:00:36.000Z,35
2023-05-19T03:01:36.000Z,40
2023-05-19T03:02:37.000Z,45
2023-05-19T03:03:38.000Z,52
2023-05-19T03:04:38.000Z,58
2023-05-19T03:05:39.000Z,65
2023-05-19T03:06:40.000Z,73
2023-05-19T03:07:40.000Z,83
2023-05-19T03:08:41.000Z,92
2023-05-19T03:09:41.000Z,103
2023-05-19T03:10:42.000Z,115
2023-05-19T03:11:43.000Z,126
2023-05-19T03:12:43.000Z,137
2023-05-19T03:13:44.000Z,149
2023-05-19T03:14:44.000Z,161
2023-05-19T03:15:45.000Z,175
2023-05-19T03:16:46.000Z,188
2023-05-19T03:17:46.000Z,203
2023-05-19T03:18:47.000Z,219
2023-05-19T03:19:48.000Z,236
2023-05-19T03:20:48.000Z,252
2023-05-19T03:21:49.000Z,269
2023-05-19T03:22:49.000Z,285
2023-05-19T03:23:50.000Z,304
2023-05-19T03:24:51.000Z,324
2023-05-19T03:25:51.000Z,346
2023-05-19T03:26:52.000Z,369
2023-05-19T03:27:53.000Z,394
2023-05-19T03:28:53.000Z,419
2023-05-19T03:29:54.000Z,446
2023-05-19T03:30:55.000Z,477
2023-05-19T03:31:55.000Z,507
2023-05-19T03:32:56.000Z,537
2023-05-19T03:33:56.000Z,565
2023-05-19T03:34:57.000Z,597
2023-05-19T03:35:58.000Z,631
2023-05-19T03:36:58.000Z,667
2023-05-19T03:37:59.000Z,697
2023-05-19T03:39:00.000Z,735
2023-05-19T03:40:00.000Z,776
2023-05-19T03:41:01.000Z,825
2023-05-19T03:42:02.000Z,879
2023-05-19T03:43:02.000Z,927
2023-05-19T03:44:03.000Z,976
2023-05-19T03:45:03.000Z,1044
2023-05-19T03:46:04.000Z,1125
2023-05-19T03:47:05.000Z,1214
2023-05-19T03:48:05.000Z,1280
2023-05-19T03:49:06.000Z,1321
2023-05-19T03:50:07.000Z,1393
2023-05-19T03:51:07.000Z,1492
2023-05-19T03:52:08.000Z,1601
2023-05-19T03:53:08.000Z,1675
2023-05-19T03:54:09.000Z,1743
2023-05-19T03:55:10.000Z,1766
2023-05-19T03:56:10.000Z,1790
2023-05-19T03:57:11.000Z,1790
2023-05-19T03:58:12.000Z,1780
2023-05-19T03:59:12.000Z,1784
2023-05-19T04:00:13.000Z,1824
2023-05-19T04:01:14.000Z,1913
2023-05-19T04:02:14.000Z,2045
2023-05-19T04:03:15.000Z,2209
2023-05-19T04:04:15.000Z,2365
2023-05-19T04:05:16.000Z,2520
2023-05-19T04:06:17.000Z,2665
2023-05-19T04:07:17.000Z,2797
2023-05-19T04:08:18.000Z,2948
2023-05-19T04:09:19.000Z,3098
2023-05-19T04:10:19.000Z,3261
2023-05-19T04:11:20.000Z,3416
2023-05-19T04:12:20.000Z,3583
2023-05-19T04:13:21.000Z,3742
2023-05-19T04:14:22.000Z,3916
2023-05-19T04:15:22.000Z,4074
2023-05-19T04:16:23.000Z,4235
2023-05-19T04:17:24.000Z,4407
2023-05-19T04:18:24.000Z,4560
2023-05-19T04:19:25.000Z,4731
2023-05-19T04:20:25.000Z,4882
2023-05-19T04:21:26.000Z,5022
2023-05-19T04:22:27.000Z,5188
2023-05-19T04:23:27.000Z,5347
2023-05-19T04:24:28.000Z,5485
2023-05-19T04:25:28.000Z,5647
2023-05-19T04:26:29.000Z,5801
2023-05-19T04:27:30.000Z,5948
2023-05-19T04:28:31.000Z,6088
2023-05-19T04:29:31.000Z,6223
2023-05-19T04:30:32.000Z,6390
2023-05-19T04:31:32.000Z,6543
2023-05-19T04:32:33.000Z,6705
2023-05-19T04:33:34.000Z,6875
2023-05-19T04:34:34.000Z,6967
2023-05-19T04:35:35.000Z,6981
2023-05-19T04:36:36.000Z,6985
2023-05-19T04:37:36.000Z,6973
2023-05-19T04:38:37.000Z,7002
2023-05-19T04:39:38.000Z,7068
2023-05-19T04:40:38.000Z,7141
2023-05-19T04:41:39.000Z,7256
2023-05-19T04:42:39.000Z,7352
2023-05-19T04:43:40.000Z,7469
2023-05-19T04:44:41.000Z,7655
2023-05-19T04:45:41.000Z,7801
2023-05-19T04:46:42.000Z,8011
2023-05-19T04:47:43.000Z,8200
2023-05-19T04:48:43.000Z,8411
2023-05-19T04:49:44.000Z,8621
2023-05-19T04:50:45.000Z,8843
2023-05-19T04:51:45.000Z,9018
2023-05-19T04:52:46.000Z,9152
2023-05-19T04:53:47.000Z,9333
2023-05-19T04:54:47.000Z,9453
2023-05-19T04:55:48.000Z,9551
2023-05-19T04:56:49.000Z,9674
2023-05-19T04:57:49.000Z,9785
2023-05-19T04:58:50.000Z,10001
2023-05-19T04:59:50.000Z,10121
2023-05-19T05:00:51.000Z,10314
2023-05-19T05:01:52.000Z,10528
2023-05-19T05:02:52.000Z,10629
2023-05-19T05:03:53.000Z,10755
2023-05-19T05:04:54.000Z,10913
2023-05-19T05:05:59.000Z,11029
2023-05-19T05:07:00.000Z,11163
2023-05-19T05:08:01.000Z,11281
2023-05-19T05:09:01.000Z,11426
2023-05-19T05:10:02.000Z,11564
2023-05-19T05:11:02.000Z,11868
2023-05-19T05:12:03.000Z,12247
2023-05-19T05:13:04.000Z,12548
2023-05-19T05:14:04.000Z,12791
2023-05-19T05:15:05.000Z,12949
2023-05-19T05:16:06.000Z,12935
2023-05-19T05:17:07.000Z,12914
2023-05-19T05:18:07.000Z,12867
2023-05-19T05:19:08.000Z,12899
2023-05-19T05:20:08.000Z,12884
2023-05-19T05:21:09.000Z,12897
2023-05-19T05:22:10.000Z,12908
2023-05-19T05:23:10.000Z,12890
2023-05-19T05:24:11.000Z,12918
2023-05-19T05:25:12.000Z,12888
2023-05-19T05:26:12.000Z,12885
2023-05-19T05:27:13.000Z,12869
2023-05-19T05:28:14.000Z,12854
2023-05-19T05:29:14.000Z,12817
2023-05-19T05:30:15.000Z,12745
2023-05-19T05:31:16.000Z,12726
2023-05-19T05:32:16.000Z,12870
2023-05-19T05:33:17.000Z,12948
2023-05-19T05:34:17.000Z,13032
2023-05-19T05:35:18.000Z,13121
2023-05-19T05:36:19.000Z,13085
2023-05-19T05:37:19.000Z,13091
2023-05-19T05:38:20.000Z,13006
2023-05-19T05:39:21.000Z,12934
2023-05-19T05:40:21.000Z,12829
2023-05-19T05:41:22.000Z,12731
2023-05-19T05:42:22.000Z,12647
2023-05-19T05:43:23.000Z,12630
2023-05-19T05:44:24.000Z,12485
2023-05-19T05:45:24.000Z,12389
2023-05-19T05:46:25.000Z,12351
2023-05-19T05:47:26.000Z,12224
2023-05-19T05:48:26.000Z,12232
2023-05-19T05:49:27.000Z,12167
2023-05-19T05:50:28.000Z,12196
2023-05-19T05:51:28.000Z,12223
2023-05-19T05:52:29.000Z,12283
2023-05-19T05:53:30.000Z,12482
2023-05-19T05:54:30.000Z,12674
2023-05-19T05:55:31.000Z,12883
2023-05-19T05:56:31.000Z,12886
2023-05-19T05:57:32.000Z,12944
2023-05-19T05:58:33.000Z,13092
2023-05-19T05:59:33.000Z,13171
2023-05-19T06:00:34.000Z,13208
2023-05-19T06:01:35.000Z,13120
2023-05-19T06:02:35.000Z,12901
2023-05-19T06:03:36.000Z,12821
2023-05-19T06:04:37.000Z,12877
2023-05-19T06:05:37.000Z,12931
2023-05-19T06:06:38.000Z,13003
2023-05-19T06:07:38.000Z,13178
2023-05-19T06:08:39.000Z,13475
2023-05-19T06:09:40.000Z,13815
2023-05-19T06:10:40.000Z,14161
2023-05-19T06:11:41.000Z,14516
2023-05-19T06:12:42.000Z,14871
2023-05-19T06:13:42.000Z,15352
2023-05-19T06:14:43.000Z,15753
2023-05-19T06:15:44.000Z,16299
2023-05-19T06:16:44.000Z,16632
2023-05-19T06:17:45.000Z,16656
2023-05-19T06:18:46.000Z,16688
2023-05-19T06:19:46.000Z,16880
2023-05-19T06:20:47.000Z,17040
2023-05-19T06:21:48.000Z,17432
2023-05-19T06:22:48.000Z,17728
2023-05-19T06:23:49.000Z,18144
2023-05-19T06:24:50.000Z,18464
2023-05-19T06:25:50.000Z,18936
2023-05-19T06:26:51.000Z,19408
2023-05-19T06:27:51.000Z,19800
2023-05-19T06:28:52.000Z,20416
2023-05-19T06:29:53.000Z,20808
2023-05-19T06:30:53.000Z,21304
2023-05-19T06:31:54.000Z,21792
2023-05-19T06:32:55.000Z,22000
2023-05-19T06:33:55.000Z,22200
2023-05-19T06:34:56.000Z,22160
2023-05-19T06:35:57.000Z,22168
2023-05-19T06:36:57.000Z,22272
2023-05-19T06:37:58.000Z,22488
2023-05-19T06:38:58.000Z,22608
2023-05-19T06:39:59.000Z,23008
2023-05-19T06:41:00.000Z,23144
2023-05-19T06:42:00.000Z,23368
2023-05-19T06:43:01.000Z,23808
2023-05-19T06:44:02.000Z,24192
2023-05-19T06:45:02.000Z,24656
2023-05-19T06:46:03.000Z,25016
2023-05-19T06:47:04.000Z,25344
2023-05-19T06:48:04.000Z,25680
2023-05-19T06:49:05.000Z,25808
2023-05-19T06:50:06.000Z,25768
2023-05-19T06:51:06.000Z,25568
2023-05-19T06:52:07.000Z,25272
2023-05-19T06:53:08.000Z,24888
2023-05-19T06:54:08.000Z,24616
2023-05-19T06:55:09.000Z,24320
2023-05-19T06:56:10.000Z,23744
2023-05-19T06:57:10.000Z,23208
2023-05-19T06:58:11.000Z,22728
2023-05-19T06:59:11.000Z,22232
2023-05-19T07:00:12.000Z,21752
2023-05-19T07:01:13.000Z,21376
2023-05-19T07:02:13.000Z,20912
2023-05-19T07:03:14.000Z,20432
2023-05-19T07:04:15.000Z,19952
2023-05-19T07:05:15.000Z,19384
2023-05-19T07:06:16.000Z,18888
2023-05-19T07:07:17.000Z,18464
2023-05-19T07:08:17.000Z,18008
2023-05-19T07:09:18.000Z,17576
2023-05-19T07:10:18.000Z,17056
2023-05-19T07:11:19.000Z,16245
2023-05-19T07:12:20.000Z,15797
2023-05-19T07:13:20.000Z,15384
2023-05-19T07:14:21.000Z,15133
2023-05-19T07:15:22.000Z,14833
2023-05-19T07:16:22.000Z,14558
2023-05-19T07:17:23.000Z,14265
2023-05-19T07:18:24.000Z,13978
2023-05-19T07:19:24.000Z,14056
2023-05-19T07:20:25.000Z,14019
2023-05-19T07:21:25.000Z,14124
2023-05-19T07:22:26.000Z,14446
2023-05-19T07:23:27.000Z,14662
2023-05-19T07:24:27.000Z,15016
2023-05-19T07:25:28.000Z,15364
2023-05-19T07:26:29.000Z,15624
2023-05-19T07:27:29.000Z,15875
2023-05-19T07:28:30.000Z,16107
2023-05-19T07:29:31.000Z,16268
2023-05-19T07:30:31.000Z,16552
2023-05-19T07:31:32.000Z,17168
2023-05-19T07:32:33.000Z,17704
2023-05-19T07:33:33.000Z,17992
2023-05-19T07:34:34.000Z,17920
2023-05-19T07:35:34.000Z,17912
2023-05-19T07:36:35.000Z,17968
2023-05-19T07:37:36.000Z,17760
2023-05-19T07:38:36.000Z,17704
2023-05-19T07:39:37.000Z,17840
2023-05-19T07:40:38.000Z,18528
2023-05-19T07:41:38.000Z,19632
2023-05-19T07:42:39.000Z,20328
2023-05-19T07:43:40.000Z,21120
2023-05-19T07:44:40.000Z,21712
2023-05-19T07:45:41.000Z,22216
2023-05-19T07:46:42.000Z,22304
2023-05-19T07:47:42.000Z,22176
2023-05-19T07:48:43.000Z,22016
2023-05-19T07:49:43.000Z,21832
2023-05-19T07:50:44.000Z,21016
2023-05-19T07:51:45.000Z,20232
2023-05-19T07:52:45.000Z,19976
2023-05-19T07:53:46.000Z,19776
2023-05-19T07:54:47.000Z,19856
2023-05-19T07:55:47.000Z,19472
2023-05-19T07:56:48.000Z,19048
2023-05-19T07:57:49.000Z,18544
2023-05-19T07:58:49.000Z,18496
2023-05-19T07:59:50.000Z,17848
2023-05-19T08:00:50.000Z,17624
2023-05-19T08:01:51.000Z,18560
2023-05-19T08:02:52.000Z,19528
2023-05-19T08:03:52.000Z,20384
2023-05-19T08:04:53.000Z,20024
2023-05-19T08:05:54.000Z,21944
2023-05-19T08:06:54.000Z,30312
2023-05-19T08:07:55.000Z,31016
2023-05-19T08:08:56.000Z,23240
2023-05-19T08:09:56.000Z,23736
2023-05-19T08:10:57.000Z,22360
2023-05-19T08:11:57.000Z,23080
2023-05-19T08:12:58.000Z,25048
2023-05-19T08:13:59.000Z,28496
2023-05-19T08:14:59.000Z,37744
2023-05-19T08:16:00.000Z,31312
2023-05-19T08:17:01.000Z,27936
2023-05-19T08:18:01.000Z,30360
2023-05-19T08:19:02.000Z,32144
2023-05-19T08:20:03.000Z,30688
2023-05-19T08:21:03.000Z,33520
2023-05-19T08:22:04.000Z,36688
2023-05-19T08:23:04.000Z,27112
2023-05-19T08:24:05.000Z,25760
2023-05-19T08:25:06.000Z,31656
2023-05-19T08:26:06.000Z,37440
2023-05-19T08:27:07.000Z,37528
2023-05-19T08:28:08.000Z,33272
2023-05-19T08:29:08.000Z,40928
2023-05-19T08:30:09.000Z,34152
2023-05-19T08:31:10.000Z,29568
2023-05-19T08:32:10.000Z,29440
2023-05-19T08:33:11.000Z,29800
2023-05-19T08:34:12.000Z,26720
2023-05-19T08:35:12.000Z,26016
2023-05-19T08:36:13.000Z,25712
2023-05-19T08:37:14.000Z,25984
2023-05-19T08:38:14.000Z,26584
2023-05-19T08:39:15.000Z,27320
2023-05-19T08:40:15.000Z,32416
2023-05-19T08:41:16.000Z,38760
2023-05-19T08:42:17.000Z,45040
2023-05-19T08:43:17.000Z,43008
2023-05-19T08:44:18.000Z,35976
2023-05-19T08:45:19.000Z,34264
2023-05-19T08:46:19.000Z,36432
2023-05-19T08:47:20.000Z,43768
2023-05-19T08:48:21.000Z,40152
2023-05-19T08:49:21.000Z,51816
2023-05-19T08:50:22.000Z,64456
2023-05-19T08:51:23.000Z,59656
2023-05-19T08:52:23.000Z,60272
2023-05-19T08:53:24.000Z,48184
2023-05-19T08:54:25.000Z,49112
2023-05-19T08:55:25.000Z,43112
2023-05-19T08:56:26.000Z,40744
2023-05-19T08:57:26.000Z,41352
2023-05-19T08:58:27.000Z,40448
2023-05-19T08:59:28.000Z,48784
2023-05-19T09:00:28.000Z,45360
2023-05-19T09:01:29.000Z,49240
2023-05-19T09:02:30.000Z,51120
2023-05-19T09:03:30.000Z,62696
2023-05-19T09:04:31.000Z,65535
2023-05-19T09:05:32.000Z,65535
2023-05-19T09:06:32.000Z,65535
2023-05-19T09:07:33.000Z,65535
2023-05-19T09:08:34.000Z,65535
2023-05-19T09:09:34.000Z,65535
2023-05-19T09:10:35.000Z,65535
2023-05-19T09:11:36.000Z,65535
2023-05-19T09:12:36.000Z,65535
2023-05-19T09:13:37.000Z,65535
2023-05-19T09:14:37.000Z,65535
2023-05-19T09:15:38.000Z,40840
2023-05-19T09:16:39.000Z,57520
2023-05-19T09:17:39.000Z,65535
2023-05-19T09:18:40.000Z,65535
2023-05-19T09:19:41.000Z,65535
2023-05-19T09:20:41.000Z,65535
2023-05-19T09:21:42.000Z,65535
2023-05-19T09:22:43.000Z,65535
2023-05-19T09:23:43.000Z,65535
2023-05-19T09:24:44.000Z,65535
2023-05-19T09:25:45.000Z,65535
2023-05-19T09:26:45.000Z,65535
2023-05-19T09:27:46.000Z,65535
2023-05-19T09:28:46.000Z,65535
2023-05-19T09:29:47.000Z,65535
2023-05-19T09:30:48.000Z,65535
2023-05-19T09:31:48.000Z,65535
2023-05-19T09:32:49.000Z,30928
2023-05-19T09:33:50.000Z,65535
2023-05-19T09:34:50.000Z,65535
2023-05-19T09:35:51.000Z,65535
2023-05-19T09:36:51.000Z,43800
2023-05-19T09:37:52.000Z,65535
2023-05-19T09:38:53.000Z,32392
2023-05-19T09:39:53.000Z,30656
2023-05-19T09:40:54.000Z,37608
2023-05-19T09:41:55.000Z,42024
2023-05-19T09:42:55.000Z,58112
2023-05-19T09:43:56.000Z,65535
2023-05-19T09:44:57.000Z,65535
2023-05-19T09:45:57.000Z,65535
2023-05-19T09:46:58.000Z,65535
2023-05-19T09:47:58.000Z,65535
2023-05-19T09:48:59.000Z,65535
2023-05-19T09:50:00.000Z,65535
2023-05-19T09:51:00.000Z,65535
2023-05-19T09:52:01.000Z,65535
2023-05-19T09:53:02.000Z,65535
2023-05-19T09:54:02.000Z,65535
2023-05-19T09:55:03.000Z,65535
2023-05-19T09:56:04.000Z,65535
2023-05-19T09:57:04.000Z,65535
2023-05-19T09:58:05.000Z,65535
2023-05-19T09:59:05.000Z,65535
2023-05-19T10:00:06.000Z,48448
2023-05-19T10:01:07.000Z,65535
2023-05-19T10:02:07.000Z,65535
2023-05-19T10:03:08.000Z,65535
2023-05-19T10:04:09.000Z,35232
2023-05-19T10:05:09.000Z,32440
2023-05-19T10:06:10.000Z,42640
2023-05-19T10:07:10.000Z,65535
2023-05-19T10:08:11.000Z,65535
2023-05-19T10:09:12.000Z,65535
2023-05-19T10:10:12.000Z,65535
2023-05-19T10:11:13.000Z,65535
2023-05-19T10:12:14.000Z,65535
2023-05-19T10:13:14.000Z,65535
2023-05-19T10:14:15.000Z,65535
2023-05-19T10:15:15.000Z,65535
2023-05-19T10:16:16.000Z,65535
2023-05-19T10:17:17.000Z,65535
2023-05-19T10:18:17.000Z,65535
2023-05-19T10:19:18.000Z,65535
2023-05-19T10:20:19.000Z,65535
2023-05-19T10:21:19.000Z,65535
2023-05-19T10:22:20.000Z,65535
2023-05-19T10:23:20.000Z,34168
2023-05-19T10:24:21.000Z,57072
2023-05-19T10:25:22.000Z,65535
2023-05-19T10:26:22.000Z,65535
2023-05-19T10:27:23.000Z,51312
2023-05-19T10:28:24.000Z,60320
2023-05-19T10:29:24.000Z,56712
2023-05-19T10:30:25.000Z,61128
2023-05-19T10:31:26.000Z,56232
2023-05-19T10:32:26.000Z,55248
2023-05-19T10:33:27.000Z,51824
2023-05-19T10:34:28.000Z,52528
2023-05-19T10:35:28.000Z,54656
2023-05-19T10:36:29.000Z,52216
2023-05-19T10:37:30.000Z,50568
2023-05-19T10:38:30.000Z,60336
2023-05-19T10:39:31.000Z,61592
2023-05-19T10:40:32.000Z,65535
2023-05-19T10:41:32.000Z,63784
2023-05-19T10:42:38.000Z,64208
2023-05-19T10:43:39.000Z,65535
2023-05-19T10:44:39.000Z,65296
2023-05-19T10:45:40.000Z,65535
2023-05-19T10:46:41.000Z,64464
2023-05-19T10:47:41.000Z,65535
2023-05-19T10:48:42.000Z,65535
2023-05-19T10:49:42.000Z,65535
2023-05-19T10:50:43.000Z,65535
2023-05-19T10:51:44.000Z,65535
2023-05-19T10:52:44.000Z,65535
2023-05-19T10:53:45.000Z,65535
2023-05-19T10:54:46.000Z,65535
2023-05-19T10:55:46.000Z,65535
2023-05-19T10:56:47.000Z,65535
2023-05-19T10:57:48.000Z,65535
2023-05-19T10:58:48.000Z,65535
2023-05-19T10:59:49.000Z,65535
2023-05-19T11:00:49.000Z,65535
2023-05-19T11:01:50.000Z,65535
2023-05-19T11:02:51.000Z,65535
2023-05-19T11:03:51.000Z,65535
2023-05-19T11:04:52.000Z,65535
2023-05-19T11:05:53.000Z,65535
2023-05-19T11:06:53.000Z,65535
2023-05-19T11:07:54.000Z,65535
2023-05-19T11:08:54.000Z,65535
2023-05-19T11:09:55.000Z,65535
2023-05-19T11:10:56.000Z,65535
2023-05-19T11:11:56.000Z,65535
2023-05-19T11:12:57.000Z,65535
2023-05-19T11:13:58.000Z,65535
2023-05-19T11:14:58.000Z,65535
2023-05-19T11:15:59.000Z,65535
2023-05-19T11:16:59.000Z,65535
2023-05-19T11:18:00.000Z,65535
2023-05-19T11:19:01.000Z,65535
2023-05-19T11:20:02.000Z,65535
2023-05-19T11:21:02.000Z,65535
2023-05-19T11:22:03.000Z,65535
2023-05-19T11:23:03.000Z,65535
2023-05-19T11:24:04.000Z,65535
2023-05-19T11:25:05.000Z,65535
2023-05-19T11:26:05.000Z,65535
2023-05-19T11:27:06.000Z,65535
2023-05-19T11:28:06.000Z,65535
2023-05-19T11:29:07.000Z,65535
2023-05-19T11:30:08.000Z,65535
2023-05-19T11:31:08.000Z,65535
2023-05-19T11:32:09.000Z,65535
2023-05-19T11:33:10.000Z,65535
2023-05-19T11:34:10.000Z,65535
2023-05-19T11:35:11.000Z,65535
2023-05-19T11:36:12.000Z,65535
2023-05-19T11:37:12.000Z,65535
2023-05-19T11:38:13.000Z,65535
2023-05-19T11:39:14.000Z,65535
2023-05-19T11:40:14.000Z,65535
2023-05-19T11:41:15.000Z,65535
2023-05-19T11:42:15.000Z,65535
2023-05-19T11:43:16.000Z,65535
2023-05-19T11:44:17.000Z,65535
2023-05-19T11:45:17.000Z,65535
2023-05-19T11:46:18.000Z,46600
2023-05-19T11:47:19.000Z,65535
2023-05-19T11:48:19.000Z,65535
2023-05-19T11:49:20.000Z,36008
2023-05-19T11:50:21.000Z,47968
2023-05-19T11:51:21.000Z,43000
2023-05-19T11:52:22.000Z,57168
2023-05-19T11:53:23.000Z,40480
2023-05-19T11:54:23.000Z,37360
2023-05-19T11:55:24.000Z,35624
2023-05-19T11:56:25.000Z,37136
2023-05-19T11:57:25.000Z,39128
2023-05-19T11:58:26.000Z,40480
2023-05-19T11:59:31.000Z,40496
2023-05-19T12:00:32.000Z,38640
2023-05-19T12:01:33.000Z,63448
2023-05-19T12:02:33.000Z,45152
2023-05-19T12:03:34.000Z,46456
2023-05-19T12:04:35.000Z,44368
2023-05-19T12:05:35.000Z,44008
2023-05-19T12:06:36.000Z,47576
2023-05-19T12:07:37.000Z,65535
2023-05-19T12:08:37.000Z,65535
2023-05-19T12:09:38.000Z,65535
2023-05-19T12:10:38.000Z,65535
2023-05-19T12:11:39.000Z,65535
2023-05-19T12:12:40.000Z,61832
2023-05-19T12:13:40.000Z,62160
2023-05-19T12:14:41.000Z,53080
2023-05-19T12:15:42.000Z,65535
2023-05-19T12:16:42.000Z,65535
2023-05-19T12:17:43.000Z,65535
2023-05-19T12:18:43.000Z,65535
2023-05-19T12:19:44.000Z,65535
2023-05-19T12:20:45.000Z,65535
2023-05-19T12:21:45.000Z,65535
2023-05-19T12:22:46.000Z,65535
2023-05-19T12:23:47.000Z,65535
2023-05-19T12:24:47.000Z,65535
2023-05-19T12:25:48.000Z,58960
2023-05-19T12:26:49.000Z,64648
2023-05-19T12:27:49.000Z,65535
2023-05-19T12:28:50.000Z,65535
2023-05-19T12:29:50.000Z,65535
2023-05-19T12:30:51.000Z,65535
2023-05-19T12:31:52.000Z,65535
2023-05-19T12:32:52.000Z,65535
2023-05-19T12:33:53.000Z,65535
2023-05-19T12:34:54.000Z,65535
2023-05-19T12:35:54.000Z,53048
2023-05-19T12:36:55.000Z,61920
2023-05-19T12:37:55.000Z,65535
2023-05-19T12:38:56.000Z,65535
2023-05-19T12:39:57.000Z,65535
2023-05-19T12:40:57.000Z,65535
2023-05-19T12:41:58.000Z,65535
2023-05-19T12:42:59.000Z,65535
2023-05-19T12:43:59.000Z,65535
2023-05-19T12:45:00.000Z,65535
2023-05-19T12:46:01.000Z,63144
2023-05-19T12:47:01.000Z,63288
2023-05-19T12:48:02.000Z,58832
2023-05-19T12:49:03.000Z,60664
2023-05-19T12:50:03.000Z,56112
2023-05-19T12:51:04.000Z,53608
2023-05-19T12:52:04.000Z,42664
2023-05-19T12:53:05.000Z,41928
2023-05-19T12:54:06.000Z,33536
2023-05-19T12:55:06.000Z,42872
2023-05-19T12:56:07.000Z,31192
2023-05-19T12:57:08.000Z,36320
2023-05-19T12:58:08.000Z,65535
2023-05-19T12:59:09.000Z,65535
2023-05-19T13:00:10.000Z,65535
2023-05-19T13:01:10.000Z,65535
2023-05-19T13:02:11.000Z,65535
2023-05-19T13:03:12.000Z,65535
2023-05-19T13:04:12.000Z,65535
2023-05-19T13:05:13.000Z,44976
2023-05-19T13:06:14.000Z,41072
2023-05-19T13:07:14.000Z,65535
2023-05-19T13:08:15.000Z,65144
2023-05-19T13:09:15.000Z,65535
2023-05-19T13:10:16.000Z,61176
2023-05-19T13:11:17.000Z,65535
2023-05-19T13:12:17.000Z,65535
2023-05-19T13:13:18.000Z,65535
2023-05-19T13:14:19.000Z,65535
2023-05-19T13:15:19.000Z,45584
2023-05-19T13:16:20.000Z,38376
2023-05-19T13:17:21.000Z,31400
2023-05-19T13:18:21.000Z,28384
2023-05-19T13:19:22.000Z,26912
2023-05-19T13:20:23.000Z,21264
2023-05-19T13:21:23.000Z,20272
2023-05-19T13:22:24.000Z,65535
2023-05-19T13:23:25.000Z,65535
2023-05-19T13:24:25.000Z,65535
2023-05-19T13:25:26.000Z,65535
2023-05-19T13:26:26.000Z,32192
2023-05-19T13:27:27.000Z,65535
2023-05-19T13:28:28.000Z,38640
2023-05-19T13:29:28.000Z,65535